Latest Weather Observations for Noarlunga

IDS60901

Issued at 7:01 pm CDT Friday 14 December 2018 (issued every 10 minutes, with the page automatically refreshed every 10 minutes)

About weather observations | Map of Adelaide area stations | Latest observations for Adelaide area | Other Formats
Station Details ID: 023885 Name: NOARLUNGA Lat: -35.16 Lon: 138.51 Height: 55.0 m
Data from the previous 72 hours. | See also: Recent months at Noarlunga
Date/Time
CDT
Temp
°C
App
Temp
°C
Dew
Point
°C
Rel
Hum
%
Delta-T
°C
Wind Press
QNH
hPa
Press
MSL
hPa
Rain since
9am
mm
Dir  Spd
km/h
Gust
km/h
Spd
kts
Gust
kts
14/07:00pm 17.0 12.1 13.7 81 1.9 SSE 32 43 17 23 - - 0.8
14/06:39pm 17.0 12.5 13.7 81 1.9 SSE 30 50 16 27 - - 0.8
14/06:30pm 17.2 12.7 13.7 80 2.0 SSE 30 43 16 23 - - 0.8
14/06:00pm 17.6 11.7 13.5 77 2.3 SSE 37 50 20 27 - - 0.8
14/05:35pm 17.4 13.4 14.1 81 1.9 S 28 46 15 25 - - 0.8
14/05:30pm 17.2 13.6 14.1 82 1.8 S 26 37 14 20 - - 0.8
14/05:00pm 17.3 12.2 13.8 80 2.0 SSE 33 48 18 26 - - 0.8
14/04:38pm 17.3 12.8 13.8 80 2.0 S 30 54 16 29 - - 0.8
14/04:30pm 17.5 12.8 14.2 81 1.9 SSE 32 46 17 25 - - 0.8
14/04:02pm 17.9 12.5 14.0 78 2.2 SSE 35 54 19 29 - - 0.8
14/04:00pm 18.1 12.4 14.2 78 2.2 SSE 37 54 20 29 - - 0.8
14/03:43pm 18.6 14.0 14.5 77 2.4 SSE 32 50 17 27 - - 0.8
14/03:30pm 18.0 13.2 14.5 80 2.0 S 33 52 18 28 - - 0.8
14/03:00pm 18.2 13.6 14.5 79 2.1 SSE 32 46 17 25 - - 0.8
14/02:30pm 18.7 14.1 14.6 77 2.4 S 32 44 17 24 - - 0.8
14/02:00pm 19.1 14.3 15.6 80 2.1 SSE 35 48 19 26 - - 0.8
14/01:30pm 18.1 13.2 15.2 83 1.7 SSE 35 52 19 28 - - 0.8
14/01:06pm 17.5 12.5 15.1 86 1.4 SSE 35 56 19 30 - - 0.8
14/01:00pm 17.5 13.1 15.1 86 1.4 SSE 32 50 17 27 - - 0.8
14/12:58pm 17.4 13.7 15.0 86 1.4 SSE 28 48 15 26 - - 0.8
14/12:30pm 17.6 16.0 14.9 84 1.6 SSE 17 28 9 15 - - 0.8
14/12:00pm 17.9 17.0 15.9 88 1.2 SSE 15 22 8 12 - - 0.8
14/11:30am 17.2 15.7 15.4 89 1.1 SSE 17 24 9 13 - - 0.8
14/11:00am 16.1 14.6 14.3 89 1.0 SE 15 19 8 10 - - 0.8
14/10:30am 15.6 12.1 13.4 87 1.2 SE 24 35 13 19 - - 0.6
14/10:00am 16.8 12.7 14.8 88 1.2 SSE 30 43 16 23 - - 0.0
14/09:30am 16.7 12.1 14.5 87 1.3 SSE 32 54 17 29 - - 0.0
14/09:29am 16.8 12.6 14.6 87 1.3 SSE 30 54 16 29 - - 0.0
14/09:00am 16.3 12.0 14.3 88 1.1 S 30 41 16 22 - - 5.8
14/08:30am 15.7 11.2 13.7 88 1.1 S 30 44 16 24 - - 5.8
14/08:00am 15.1 10.8 13.1 88 1.1 S 28 48 15 26 - - 5.8
14/07:54am 15.0 10.6 13.0 88 1.1 S 28 48 15 26 - - 5.8
14/07:30am 14.8 11.5 12.8 88 1.1 SSW 22 37 12 20 - - 5.8
14/07:00am 14.7 11.0 12.6 87 1.2 SSW 24 37 13 20 - - 5.6
14/06:30am 14.5 10.7 12.4 87 1.1 SSW 24 39 13 21 - - 5.0
14/06:00am 14.3 11.5 12.5 89 1.0 SSW 19 32 10 17 - - 4.8
14/05:30am 13.9 10.3 11.9 88 1.1 SSW 22 37 12 20 - - 4.2
14/05:00am 13.6 10.4 11.8 89 1.0 SW 20 39 11 21 - - 3.0
14/04:30am 13.3 9.6 11.5 89 1.0 SSW 22 37 12 20 - - 2.6
14/04:00am 13.1 9.3 11.3 89 1.0 SW 22 43 12 23 - - 2.4
14/03:30am 12.9 8.3 11.1 89 0.9 SW 26 43 14 23 - - 2.2
14/03:00am 12.7 8.4 10.8 88 1.0 SW 24 48 13 26 - - 1.8
14/02:30am 12.8 8.5 10.9 88 1.0 SSW 24 46 13 25 - - 1.6
14/02:00am 12.7 9.2 10.8 88 1.0 SSW 20 37 11 20 - - 1.6
14/01:30am 12.7 7.8 10.1 84 1.3 SW 26 48 14 26 - - 1.4
14/01:01am 12.6 7.3 9.8 83 1.4 SW 28 46 15 25 - - 1.4
14/01:00am 12.7 7.8 9.9 83 1.4 SW 26 46 14 25 - - 1.4
14/12:30am 13.1 6.8 8.8 75 2.2 SW 32 54 17 29 - - 1.2
14/12:01am 13.6 7.4 7.8 68 2.9 SW 30 48 16 26 - - 1.2
14/12:00am 13.6 7.4 7.8 68 2.9 SW 30 46 16 25 - - 1.2
 
Date/Time
CDT
Temp
°C
App
Temp
°C
Dew
Point
°C
Rel
Hum
%
Delta-T
°C
Wind Press
QNH
hPa
Press
MSL
hPa
Rain since
9am
mm
Dir  Spd
km/h
Gust
km/h
Spd
kts
Gust
kts
13/11:36pm 13.7 7.7 7.2 65 3.2 SSW 28 46 15 25 - - 1.2
13/11:30pm 13.8 8.9 7.1 64 3.3 SSW 22 37 12 20 - - 1.2
13/11:08pm 14.0 7.8 6.1 59 3.8 SW 28 50 15 27 - - 1.2
13/11:00pm 14.1 9.4 6.2 59 3.8 SW 20 41 11 22 - - 1.2
13/10:30pm 13.9 8.3 7.0 63 3.4 SW 26 48 14 26 - - 1.2
13/10:00pm 13.6 8.8 7.4 66 3.0 SSW 22 37 12 20 - - 1.2
13/09:30pm 13.4 7.4 7.2 66 3.0 SSW 28 41 15 22 - - 1.2
13/09:00pm 13.7 8.0 6.6 62 3.4 SSW 26 46 14 25 - - 1.2
13/08:30pm 13.8 8.4 6.4 61 3.6 SSW 24 43 13 23 - - 1.2
13/08:06pm 13.6 7.4 6.2 61 3.5 SSW 28 50 15 27 - - 1.2
13/08:00pm 13.5 9.0 6.8 64 3.2 SSW 20 43 11 23 - - 1.2
13/07:30pm 13.2 6.7 6.3 63 3.3 SSW 30 50 16 27 - - 1.2
13/07:21pm 14.2 7.3 4.8 53 4.4 SSW 30 50 16 27 - - 1.2
13/07:00pm 14.6 7.8 5.1 53 4.5 SSW 30 46 16 25 - - 1.2
13/06:58pm 14.5 8.0 4.8 52 4.5 SSW 28 52 15 28 - - 1.2
13/06:33pm 15.1 8.8 5.9 54 4.4 SW 28 50 15 27 - - 1.2
13/06:30pm 15.4 9.7 6.7 56 4.3 SW 26 50 14 27 - - 1.2
13/06:12pm 15.4 9.3 6.4 55 4.4 SW 28 48 15 26 - - 1.2
13/06:00pm 13.9 8.2 6.5 61 3.6 SSW 26 46 14 25 - - 1.2
13/05:30pm 14.0 6.6 5.1 55 4.2 SW 33 57 18 31 - - 1.2
13/05:00pm 14.9 7.0 2.4 43 5.6 SSW 33 54 18 29 - - 1.2
13/04:33pm 16.1 9.2 2.5 40 6.1 SW 28 48 15 26 - - 1.2
13/04:30pm 16.2 8.9 2.6 40 6.1 SW 30 48 16 26 - - 1.2
13/04:00pm 15.7 9.8 3.8 45 5.5 SW 24 37 13 20 - - 1.2
13/03:30pm 14.2 7.8 7.0 62 3.5 SW 30 48 16 26 - - 1.2
13/03:25pm 13.5 7.6 7.5 67 2.9 SW 28 48 15 26 - - 1.2
13/03:00pm 12.1 6.5 7.2 72 2.4 SSW 26 46 14 25 - - 1.2
13/02:30pm 14.1 7.0 6.5 60 3.7 SSW 33 56 18 30 - - 1.0
13/02:00pm 13.1 6.1 6.9 66 3.0 SSW 33 56 18 30 - - 1.0
13/01:30pm 14.3 7.4 6.4 59 3.8 SSW 32 54 17 29 - - 0.8
13/01:17pm 13.5 5.7 4.9 56 4.0 SSW 35 59 19 32 - - 0.8
13/01:14pm 14.2 6.9 5.3 55 4.2 SW 33 57 18 31 - - 0.8
13/01:00pm 15.2 9.0 7.7 61 3.7 SW 30 50 16 27 - - 0.8
13/12:49pm 14.3 8.8 7.4 63 3.4 SSW 26 56 14 30 - - 0.8
13/12:30pm 13.1 6.7 6.9 66 3.0 SSW 30 50 16 27 - - 0.8
13/12:00pm 13.6 7.4 9.3 75 2.2 SW 32 54 17 29 - - 0.6
13/11:41am 15.0 8.2 5.0 51 4.7 SW 30 65 16 35 - - 0.2
13/11:30am 15.9 10.9 6.3 53 4.7 SSW 22 35 12 19 - - 0.2
13/11:00am 13.1 7.4 8.4 73 2.3 SW 28 48 15 26 - - 0.2
13/10:45am 14.9 8.6 5.7 54 4.4 SW 28 52 15 28 - - 0.2
13/10:30am 14.0 7.1 6.6 61 3.6 SSW 32 46 17 25 - - 0.2
13/10:20am 14.7 8.6 6.5 58 4.0 SSW 28 48 15 26 - - 0.2
13/10:00am 13.9 8.3 7.2 64 3.3 SSW 26 41 14 22 - - 0.2
13/09:30am 15.2 9.0 6.0 54 4.4 SW 28 48 15 26 - - 0.0
13/09:00am 14.2 6.4 5.0 54 4.3 SW 35 61 19 33 - - 3.0
13/08:30am 15.1 8.7 5.0 51 4.8 SW 28 50 15 27 - - 3.0
13/08:11am 15.5 9.1 5.4 51 4.8 SW 28 50 15 27 - - 3.0
13/08:00am 15.4 9.8 5.3 51 4.8 SSW 24 43 13 23 - - 3.0
13/07:30am 14.6 8.2 5.4 54 4.4 SW 28 50 15 27 - - 3.0
13/07:22am 14.6 8.2 5.1 53 4.5 SW 28 50 15 27 - - 3.0
13/07:00am 14.5 10.0 7.1 61 3.6 SW 20 37 11 20 - - 3.0
13/06:39am 14.4 8.4 7.2 62 3.5 SSW 28 50 15 27 - - 3.0
13/06:30am 14.4 9.4 7.9 65 3.2 SSW 24 39 13 21 - - 3.0
13/06:00am 14.5 9.5 8.2 66 3.2 SSW 24 44 13 24 - - 3.0
13/05:35am 14.4 8.8 8.6 68 2.9 SSW 28 46 15 25 - - 3.0
13/05:30am 14.3 9.4 9.9 75 2.3 SSW 26 41 14 22 - - 3.0
13/05:00am 14.1 9.1 10.9 81 1.7 SW 28 50 15 27 - - 3.0
13/04:30am 15.0 10.3 12.0 82 1.6 SW 28 52 15 28 - - 3.0
13/04:29am 15.1 10.4 11.9 81 1.7 SW 28 50 15 27 - - 3.0
13/04:00am 15.2 12.4 12.7 85 1.4 SW 19 35 10 19 - - 3.0
13/03:30am 16.1 13.1 12.1 77 2.2 SSW 19 33 10 18 - - 2.6
13/03:00am 16.3 12.6 12.7 79 2.0 SW 24 41 13 22 - - 2.6
13/02:30am 16.3 12.6 13.8 85 1.4 SW 26 43 14 23 - - 2.6
13/02:10am 16.5 12.4 13.8 84 1.5 SW 28 50 15 27 - - 2.6
13/02:00am 16.6 13.4 14.2 86 1.4 SW 24 39 13 21 - - 2.6
13/01:30am 17.2 15.8 14.5 84 1.6 SW 15 26 8 14 - - 2.4
13/01:00am 18.1 16.9 14.0 77 2.3 SW 13 20 7 11 - - 2.4
13/12:30am 18.1 17.2 13.6 75 2.6 SW 11 20 6 11 - - 2.4
13/12:00am 18.2 17.3 13.7 75 2.6 SW 11 19 6 10 - - 2.4
 
Date/Time
CDT
Temp
°C
App
Temp
°C
Dew
Point
°C
Rel
Hum
%
Delta-T
°C
Wind Press
QNH
hPa
Press
MSL
hPa
Rain since
9am
mm
Dir  Spd
km/h
Gust
km/h
Spd
kts
Gust
kts
12/11:30pm 18.2 17.5 14.3 78 2.2 S 11 17 6 9 - - 2.4
12/11:00pm 18.3 15.7 14.8 80 2.0 SW 22 39 12 21 - - 2.4
12/10:30pm 18.3 16.3 15.4 83 1.7 SW 20 33 11 18 - - 2.4
12/10:00pm 20.4 18.1 14.7 70 3.3 WSW 20 35 11 19 - - 0.0
12/09:30pm 21.0 21.8 15.8 72 3.1 WSW 6 13 3 7 - - 0.0
12/09:00pm 21.0 20.5 16.0 73 3.0 WSW 13 20 7 11 - - 0.0
12/08:30pm 22.2 20.8 15.5 66 4.0 WSW 17 32 9 17 - - 0.0
12/08:00pm 24.6 25.5 15.0 55 5.8 W 4 7 2 4 - - 0.0
12/07:30pm 24.9 26.0 15.5 56 5.7 WSW 4 9 2 5 - - 0.0
12/07:00pm 25.9 25.7 14.7 50 6.7 W 9 15 5 8 - - 0.0
12/06:30pm 26.5 26.5 15.2 49 6.9 WNW 9 17 5 9 - - 0.0
12/06:00pm 27.5 25.8 14.8 45 7.7 NW 17 28 9 15 - - 0.0
12/05:30pm 28.0 26.1 14.3 43 8.2 N 17 26 9 14 - - 0.0
12/05:00pm 26.4 24.6 15.4 50 6.7 N 19 28 10 15 - - 0.0
12/04:30pm 29.1 24.4 12.1 35 9.9 NNW 28 41 15 22 - - 0.0
12/04:00pm 32.3 28.6 7.9 22 13.5 NW 17 24 9 13 - - 0.0
12/03:30pm 32.5 29.4 7.4 21 13.8 NW 13 20 7 11 - - 0.0
12/03:00pm 33.1 30.1 7.9 21 14.0 W 13 20 7 11 - - 0.0
12/02:30pm 33.2 30.5 7.2 20 14.3 WNW 11 20 6 11 - - 0.0
12/02:00pm 33.2 30.5 7.2 20 14.3 NW 11 19 6 10 - - 0.0
12/01:30pm 31.6 28.5 7.3 22 13.3 NNW 13 19 7 10 - - 0.0
12/01:00pm 31.8 28.4 7.5 22 13.3 NNW 15 22 8 12 - - 0.0
12/12:30pm 31.9 29.0 8.2 23 13.2 NW 13 19 7 10 - - 0.0
12/12:00pm 31.7 29.2 8.0 23 13.1 NNW 11 17 6 9 - - 0.0
12/11:30am 31.4 29.1 9.0 25 12.6 NNW 11 17 6 9 - - 0.0
12/11:00am 29.7 27.5 9.3 28 11.4 NNW 11 17 6 9 - - 0.0
12/10:30am 29.1 27.3 9.3 29 11.0 NW 9 17 5 9 - - 0.0
12/10:00am 27.0 26.7 13.4 43 8.0 W 7 13 4 7 - - 0.0
12/09:30am 29.7 27.6 9.8 29 11.2 NNW 11 17 6 9 - - 0.0
12/09:00am 28.8 27.5 10.0 31 10.6 NNW 7 11 4 6 - - 0.0
12/08:30am 25.0 24.4 8.9 36 8.7 SE 2 6 1 3 - - 0.0
12/08:00am 22.9 22.1 9.7 43 7.2 SW 4 6 2 3 - - 0.0
12/07:30am 23.0 22.4 9.0 41 7.5 SSE 2 4 1 2 - - 0.0
12/07:00am 22.4 21.9 7.8 39 7.6 CALM 0 4 0 2 - - 0.0
12/06:30am 22.3 19.4 4.8 32 8.7 WNW 9 15 5 8 - - 0.0
12/06:00am 22.7 20.4 4.7 31 8.9 NE 6 9 3 5 - - 0.0
12/05:30am 22.7 19.6 3.8 29 9.2 ENE 9 13 5 7 - - 0.0
12/05:00am 23.1 20.3 3.1 27 9.6 ENE 7 9 4 5 - - 0.0
12/04:30am 23.2 21.0 3.2 27 9.7 WNW 4 6 2 3 - - 0.0
12/04:00am 24.6 21.6 2.1 23 10.8 NE 7 13 4 7 - - 0.0
12/03:30am 24.7 20.2 2.2 23 10.8 NE 15 24 8 13 - - 0.0
12/03:00am 25.0 19.2 2.4 23 10.9 ENE 22 35 12 19 - - 0.0
12/02:30am 24.9 19.5 2.4 23 10.8 E 20 33 11 18 - - 0.0
12/02:00am 25.1 19.7 2.5 23 10.9 E 20 30 11 16 - - 0.0
12/01:30am 25.1 19.8 3.1 24 10.8 E 20 37 11 20 - - 0.0
12/01:00am 24.8 18.2 4.0 26 10.3 E 28 41 15 22 - - 0.0
12/12:30am 24.5 18.3 4.3 27 10.0 ESE 26 39 14 21 - - 0.0
12/12:00am 25.0 18.3 3.6 25 10.5 E 28 43 15 23 - - 0.0
 
Date/Time
CDT
Temp
°C
App
Temp
°C
Dew
Point
°C
Rel
Hum
%
Delta-T
°C
Wind Press
QNH
hPa
Press
MSL
hPa
Rain since
9am
mm
Dir  Spd
km/h
Gust
km/h
Spd
kts
Gust
kts
11/11:30pm 25.3 19.4 3.9 25 10.6 ESE 24 37 13 20 - - 0.0
11/11:00pm 24.7 18.8 3.9 26 10.3 E 24 35 13 19 - - 0.0
11/10:30pm 24.4 18.7 4.7 28 9.9 ESE 24 37 13 20 - - 0.0
11/10:00pm 24.2 18.5 5.1 29 9.6 ESE 24 33 13 18 - - 0.0
11/09:30pm 24.1 18.4 5.0 29 9.6 ESE 24 35 13 19 - - 0.0
11/09:00pm 24.3 19.1 5.6 30 9.5 ESE 22 32 12 17 - - 0.0
11/08:30pm 24.7 19.6 6.0 30 9.6 ESE 22 37 12 20 - - 0.0
11/08:00pm 25.5 20.4 6.2 29 10.0 ESE 22 35 12 19 - - 0.0
11/07:30pm 26.1 21.2 6.7 29 10.2 SE 22 33 12 18 - - 0.0

Latest Capital City Observations: Canberra | Sydney | Melbourne | Brisbane | Adelaide | Perth | Hobart | Darwin

Other Formats:

Comma delimited format used in spreadsheet applications
http://www.bom.gov.au/fwo/IDS60901/IDS60901.94808.axf

JavaScript Object Notation format (JSON) in row-major order
http://www.bom.gov.au/fwo/IDS60901/IDS60901.94808.json